YPS weather

Port Hawkesbury Airport
Port Hawkesbury, Nova Scotia, Canada

Public forecast

Using degrees Celsius for public forecast. Weather courtesy of forecast.io.

Current aviation weather report (METAR) for Port Hawkesbury Airport

Retrieved 2020/01/25 01:00 UTC (32 minutes ago):

CYPD 250100Z AUTO 34002KT 9SM CLR M07/M09 A3051 RMK SLP342

Closest aviation forecast (TAF) to Port Hawkesbury Airport

Closest forecast is Sydney / J.A. Douglas McCurdy Airport, 62.9 nm (116.5 km) ENE. Retrieved 2020-01-25 00:42 UTC (50 minutes ago):

TAF CYQY 242339Z 2500/2512 32008KT P6SM FEW020 SCT230 TEMPO 2500/2512 BKN020 BECMG 2501/2503 27005KT RMK NXT FCST BY 250600Z